PWSweather.com
Personal Weather Stations
Station Observations
CARNOUSTIE
Pambride, CarnoustieGB DD7 6DY

PambrideCarnoustieGB DD7 6DY

Lat: 56.50889, Lon: -2.7051

Elevation: 105

Station Type: Oregon Scientific WMR200

Latest ConditionsUpdated 4:00:01 AM GMT Wednesday, Aug 21, 2019
Currently Today's Max Today's Min Today's Average
Temperature 47.0°F8.3°C 48.7°F9.3°C 46.9°F8.3°C 47.6°F8.7°C
Dew Point 37.7°F3.2°C 38.0°F3.3°C 36.9°F2.7°C 37.3°F2.9°C
Winds Calm Calm 2.3 mph -3.7 kmh - - 0.2 mph 0.3 kmh
Wind Gusts -- 3.5 mph5.6 kmh - -
Humidity 70% 70% 65% 67%
Pressure 30.09 in1019.0 mb 30.12 in1020.0 mb 30.09 in1019.0 mb -
Hour Temp Dew Point Humidity Winds Wind Gusts Pressure Precip Precip Rate Daily Precip Total
04:00 AM 47.0°F8.3°C 37.7°F3.2°C 70% Calm Calm -- 30.09 in1019.0 mb - 0.00 in0.0 mm 0.00 in0.0 mm
03:55 AM 47.1°F8.4°C 37.8°F3.2°C 70% Calm Calm -- 30.09 in1019.0 mb - 0.00 in0.0 mm 0.00 in0.0 mm
03:50 AM 47.3°F8.5°C 38.0°F3.3°C 70% Calm Calm -- 30.09 in1019.0 mb - 0.00 in0.0 mm 0.00 in0.0 mm
03:45 AM 47.3°F8.5°C 38.0°F3.3°C 70% Calm Calm -- 30.09 in1019.0 mb - 0.00 in0.0 mm 0.00 in0.0 mm
03:40 AM 47.3°F8.5°C 37.6°F3.1°C 69% Calm Calm -- 30.09 in1019.0 mb - 0.00 in0.0 mm 0.00 in0.0 mm
03:35 AM 47.3°F8.5°C 37.6°F3.1°C 69% Calm Calm -- 30.09 in1019.0 mb - 0.00 in0.0 mm 0.00 in0.0 mm
03:30 AM 47.3°F8.5°C 37.6°F3.1°C 69% Calm Calm -- 30.09 in1019.0 mb - 0.00 in0.0 mm 0.00 in0.0 mm
03:25 AM 47.5°F8.6°C 37.8°F3.2°C 69% Calm Calm -- 30.09 in1019.0 mb - 0.00 in0.0 mm 0.00 in0.0 mm
03:20 AM 47.3°F8.5°C 37.6°F3.1°C 69% Calm Calm -- 30.09 in1019.0 mb - 0.00 in0.0 mm 0.00 in0.0 mm
03:15 AM 47.3°F8.5°C 37.6°F3.1°C 69% Calm Calm -- 30.09 in1019.0 mb - 0.00 in0.0 mm 0.00 in0.0 mm
03:10 AM 47.3°F8.5°C 37.6°F3.1°C 69% Calm Calm -- 30.09 in1019.0 mb - 0.00 in0.0 mm 0.00 in0.0 mm
03:00 AM 47.1°F8.4°C 37.1°F2.8°C 68% Calm Calm -- 30.09 in1019.0 mb - 0.00 in0.0 mm 0.00 in0.0 mm
02:55 AM 46.9°F8.3°C 36.9°F2.7°C 68% Calm Calm -- 30.09 in1019.0 mb - 0.00 in0.0 mm 0.00 in0.0 mm
02:50 AM 46.9°F8.3°C 36.9°F2.7°C 68% Calm Calm -- 30.09 in1019.0 mb - 0.00 in0.0 mm 0.00 in0.0 mm
02:45 AM 47.1°F8.4°C 37.1°F2.8°C 68% Calm Calm -- 30.09 in1019.0 mb - 0.00 in0.0 mm 0.00 in0.0 mm
02:40 AM 47.3°F8.5°C 37.3°F2.9°C 68% Calm Calm -- 30.09 in1019.0 mb - 0.00 in0.0 mm 0.00 in0.0 mm
02:35 AM 47.5°F8.6°C 37.4°F3.0°C 68% Calm Calm -- 30.12 in1020.0 mb - 0.00 in0.0 mm 0.00 in0.0 mm
02:30 AM 47.3°F8.5°C 37.3°F2.9°C 68% Calm Calm -- 30.12 in1020.0 mb - 0.00 in0.0 mm 0.00 in0.0 mm
02:25 AM 47.3°F8.5°C 37.3°F2.9°C 68% Calm Calm -- 30.12 in1020.0 mb - 0.00 in0.0 mm 0.00 in0.0 mm
02:20 AM 47.5°F8.6°C 37.4°F3.0°C 68% Calm Calm -- 30.09 in1019.0 mb - 0.00 in0.0 mm 0.00 in0.0 mm
02:15 AM 47.5°F8.6°C 37.4°F3.0°C 68% Calm Calm -- 30.09 in1019.0 mb - 0.00 in0.0 mm 0.00 in0.0 mm
02:10 AM 47.7°F8.7°C 37.6°F3.1°C 68% Calm Calm -- 30.09 in1019.0 mb - 0.00 in0.0 mm 0.00 in0.0 mm
02:00 AM 47.3°F8.5°C 36.9°F2.7°C 67% Calm Calm -- 30.12 in1020.0 mb - 0.00 in0.0 mm 0.00 in0.0 mm
01:55 AM 47.3°F8.5°C 36.9°F2.7°C 67% Calm Calm -- 30.12 in1020.0 mb - 0.00 in0.0 mm 0.00 in0.0 mm
01:50 AM 47.3°F8.5°C 36.9°F2.7°C 67% Calm Calm -- 30.09 in1019.0 mb - 0.00 in0.0 mm 0.00 in0.0 mm
01:45 AM 47.5°F8.6°C 37.1°F2.8°C 67% Calm Calm -- 30.09 in1019.0 mb - 0.00 in0.0 mm 0.00 in0.0 mm
01:40 AM 47.3°F8.5°C 36.9°F2.7°C 67% Calm Calm -- 30.09 in1019.0 mb - 0.00 in0.0 mm 0.00 in0.0 mm
01:35 AM 47.3°F8.5°C 36.9°F2.7°C 67% Calm Calm -- 30.09 in1019.0 mb - 0.00 in0.0 mm 0.00 in0.0 mm
01:30 AM 47.3°F8.5°C 36.9°F2.7°C 67% Calm Calm -- 30.09 in1019.0 mb - 0.00 in0.0 mm 0.00 in0.0 mm
01:25 AM 47.3°F8.5°C 36.9°F2.7°C 67% Calm Calm -- 30.09 in1019.0 mb - 0.00 in0.0 mm 0.00 in0.0 mm
01:20 AM 47.5°F8.6°C 37.1°F2.8°C 67% 1.2 mph WNW1.9 kmh WNW 2.3 mph3.7 kmh 30.12 in1020.0 mb - 0.00 in0.0 mm 0.00 in0.0 mm
01:15 AM 47.7°F8.7°C 37.2°F2.9°C 67% Calm Calm -- 30.12 in1020.0 mb - 0.00 in0.0 mm 0.00 in0.0 mm
01:10 AM 47.8°F8.8°C 37.4°F3.0°C 67% Calm Calm -- 30.12 in1020.0 mb - 0.00 in0.0 mm 0.00 in0.0 mm
01:00 AM 48.0°F8.9°C 37.6°F3.1°C 67% Calm Calm -- 30.09 in1019.0 mb - 0.00 in0.0 mm 0.00 in0.0 mm
12:55 AM 48.0°F8.9°C 37.2°F2.9°C 66% Calm Calm -- 30.09 in1019.0 mb - 0.00 in0.0 mm 0.00 in0.0 mm
12:50 AM 48.2°F9.0°C 37.4°F3.0°C 66% Calm Calm -- 30.12 in1020.0 mb - 0.00 in0.0 mm 0.00 in0.0 mm
12:45 AM 48.2°F9.0°C 37.4°F3.0°C 66% Calm Calm -- 30.12 in1020.0 mb - 0.00 in0.0 mm 0.00 in0.0 mm
12:40 AM 48.4°F9.1°C 37.5°F3.1°C 66% Calm Calm -- 30.12 in1020.0 mb - 0.00 in0.0 mm 0.00 in0.0 mm
12:35 AM 48.5°F9.2°C 37.7°F3.2°C 66% Calm Calm -- 30.09 in1019.0 mb - 0.00 in0.0 mm 0.00 in0.0 mm
12:30 AM 48.4°F9.1°C 37.5°F3.1°C 66% Calm Calm -- 30.09 in1019.0 mb - 0.00 in0.0 mm 0.00 in0.0 mm
12:25 AM 48.4°F9.1°C 37.5°F3.1°C 66% Calm Calm -- 30.09 in1019.0 mb - 0.00 in0.0 mm 0.00 in0.0 mm
12:20 AM 48.4°F9.1°C 37.2°F2.9°C 65% 2.3 mph W3.7 kmh W 2.3 mph3.7 kmh 30.09 in1019.0 mb - 0.00 in0.0 mm 0.00 in0.0 mm
12:15 AM 48.4°F9.1°C 37.2°F2.9°C 65% 2.3 mph W3.7 kmh W 2.3 mph3.7 kmh 30.09 in1019.0 mb - 0.00 in0.0 mm 0.00 in0.0 mm
12:10 AM 48.6°F9.2°C 37.3°F2.9°C 65% 1.2 mph WNW1.9 kmh WNW 3.5 mph5.6 kmh 30.09 in1019.0 mb - 0.00 in0.0 mm 0.00 in0.0 mm
12:00 AM 48.7°F9.3°C 37.5°F3.1°C 65% Calm Calm -- 30.12 in1020.0 mb - 0.00 in0.0 mm 0.00 in0.0 mm